Aviation Digital Data Service (ADDS)

Output produced by METARs form (0557 UTC 21 April 2018)
found at http://aviationweather.gov/adds/metars/
 
METAR text: KAUN 210555Z AUTO 14004KT 10SM CLR 14/07 A3015 RMK AO1
Conditions at: KAUN (AUBURN MUNI , CA, US) observed 0555 UTC 21 April 2018
Temperature: 14.0°C (57°F)
Dewpoint: 7.0°C (45°F) [RH = 63%]
Pressure (altimeter): 30.15 inches Hg (1021.1 mb)
Winds: from the SE (140 degrees) at 5 MPH (4 knots; 2.1 m/s)
Visibility: 10 or more miles (16+ km)
Ceiling: at least 12,000 feet AGL
Clouds: sky clear below 12,000 feet AGL
Weather: automated observation with no human augmentation;
there may or may not be significant weather present at this time